• Join FlightAware (Why Join?)
  • Login
  • US Flag 
08:06AM EDT


 

Airport Tracker/Info


-or-


 

Live Flight TrackerFlight Track Log ✈ SKW4602 ✈ 10-May-2013 ✈ KLAX - KSFO

Flight Track Log - Related Links

Times and Time Zones

All times are in EDT time to prevent confusion due to time zone crossing. See the SKW4602 flight status page for this flight to view local times or setup timezone preferences in your user account.

Time Position Orientation Groundspeed Altitude Reporting Facility
EDT Latitude Longitude Course Direction KTS MPH feet Rate Location/Type
09:33AM 33.9467 -118.4472 307° West 162 186 1,400  Level Los Angeles Center
09:34AM 33.9367 -118.5331 262° West 233 268 4,400 3,000 Climbing Los Angeles Center
09:35AM 33.9239 -118.6264 261° West 281 323 7,600 3,240 Climbing Los Angeles Center
09:36AM 34.0630 -118.8825 296° West  Level FlightAware Approximate
09:36AM 33.9053 -118.7269 257° West 309 356 11,100  Level Los Angeles Center
09:37AM 34.1000 -119.0011 270° West  Level FlightAware Approximate
09:37AM 33.8886 -118.8314 259° West 319 367 14,500  Level Los Angeles Center
09:38AM 34.1400 -119.1106 307° West  Level FlightAware Approximate
09:38AM 33.9389 -118.9136 306° West 307 353 17,800  Level Los Angeles Center
09:39AM 34.2035 -119.2122 307° West  Level FlightAware Approximate
09:39AM 33.9947 -118.9961 309° West 318 366 20,300  Level Los Angeles Center
09:40AM 34.0539 -119.0856 309° West 342 394 22,500 2,220 Climbing Los Angeles Center
09:41AM 34.1156 -119.1797 308° West 355 409 24,900 1,980 Climbing Los Angeles Center
09:43AM 34.1789 -119.2761 308° West 365 420 27,000 1,860 Climbing Los Angeles Center
09:44AM 34.2722 -119.4175 309° West 387 445 29,200 1,440 Climbing Los Angeles Center
09:45AM 34.3539 -119.5111 317° Northwest 402 463 30,000 360 Climbing Los Angeles Center
09:46AM 34.4386 -119.6081 317° Northwest 416 479 30,000  Level Los Angeles Center
09:47AM 34.5247 -119.7033 318° Northwest 419 482 30,000  Level Los Angeles Center
09:48AM 34.6103 -119.8000 317° Northwest 424 488 30,000  Level Los Angeles Center
09:49AM 34.6972 -119.8975 317° Northwest 426 490 30,000  Level Los Angeles Center
09:50AM 34.7833 -119.9956 317° Northwest 425 489 30,000  Level Los Angeles Center
09:51AM 34.8758 -120.1003 317° Northwest 414 476 30,000  Level Los Angeles Center
09:52AM 34.9583 -120.1961 316° Northwest 414 476 30,000  Level Los Angeles Center
09:53AM 35.0394 -120.2903 316° Northwest 409 471 30,000  Level Los Angeles Center
09:54AM 35.1203 -120.3844 316° Northwest 405 466 30,000  Level Los Angeles Center
09:55AM 35.2017 -120.4794 316° Northwest 406 467 30,000  Level Los Angeles Center
09:56AM 35.3003 -120.5947 316° Northwest 411 473 30,000  Level Los Angeles Center
09:57AM 35.3831 -120.6906 317° Northwest 410 472 30,000  Level Los Angeles Center
09:57AM 35.4306 -120.7478 316° Northwest 409 471 30,000  Level Oakland Center
09:58AM 35.5136 -120.8456 316° Northwest 410 472 30,000  Level Oakland Center
10:00AM 35.5997 -120.9394 318° Northwest 412 474 30,000  Level Oakland Center
10:01AM 35.6931 -121.0203 325° Northwest 410 472 30,000  Level Oakland Center
10:02AM 35.7872 -121.1022 325° Northwest 412 474 30,000  Level Oakland Center
10:03AM 35.8806 -121.1839 325° Northwest 411 473 30,000  Level Oakland Center
10:04AM 35.9742 -121.2669 324° Northwest 415 478 30,000  Level Oakland Center
10:05AM 36.0650 -121.3500 324° Northwest 409 471 30,000  Level Oakland Center
10:06AM 36.1586 -121.4314 325° Northwest 412 474 30,000  Level Oakland Center
10:07AM 36.2517 -121.5150 324° Northwest 415 478 30,000 -60 Level Oakland Center
10:08AM 36.3456 -121.5950 326° Northwest 411 473 29,900 -1,380 Descending Oakland Center
10:09AM 36.4378 -121.6797 324° Northwest 415 478 27,300 -2,760 Descending Oakland Center
10:09AM 36.5167 -121.7500 324° Northwest 405 466 25,000 -2,760 Descending Northern Cal TRACON
10:10AM 36.6000 -121.8333 321° Northwest 375 432 22,500 -2,400 Descending Northern Cal TRACON
10:11AM 36.6833 -121.9000 327° Northwest 353 406 20,200 -2,280 Descending Northern Cal TRACON
10:12AM 36.7500 -121.9667 321° Northwest 328 377 18,000 -1,860 Descending Northern Cal TRACON
10:13AM 36.8333 -121.9833 351° North 308 354 16,500 -1,620 Descending Northern Cal TRACON
10:14AM 36.9167 -122.0167 342° North 311 358 15,000 -1,740 Descending Northern Cal TRACON
10:15AM 36.9575 -122.0208 355° North 309 356 14,200 -1,740 Descending Oakland Center
10:16AM 37.0422 -122.0419 349° North 311 358 12,500 -1,680 Descending Oakland Center
10:17AM 37.1242 -122.0628 349° North 304 350 10,900 -1,620 Descending Oakland Center
10:18AM 37.2022 -122.0831 348° North 290 334 9,300 -1,620 Descending Oakland Center
10:19AM 37.2792 -122.1039 348° North 284 327 7,700 -1,620 Descending Oakland Center
10:20AM 37.3531 -122.1236 348° North 274 315 6,100 -1,680 Descending Oakland Center
10:21AM 37.4236 -122.1375 351° North 262 302 4,400 -1,560 Descending Oakland Center
10:22AM 37.4919 -122.1514 351° North 255 293 3,000 -900 Descending Oakland Center
10:23AM 37.5386 -122.1861 329° Northwest 218 251 2,600 -420 Descending Oakland Center